sensor_id;sensor_type;location;lat;lon;timestamp;temperature;humidity
5930;DHT22;2990;48.746;9.236;2023-01-20T00:01:01;-0.90;1.00
5930;DHT22;2990;48.746;9.236;2023-01-20T00:03:27;-1.00;1.00
5930;DHT22;2990;48.746;9.236;2023-01-20T00:05:53;-0.90;1.00
5930;DHT22;2990;48.746;9.236;2023-01-20T00:08:18;-0.90;1.00
5930;DHT22;2990;48.746;9.236;2023-01-20T00:10:44;-0.90;1.00
5930;DHT22;2990;48.746;9.236;2023-01-20T00:13:09;-0.90;1.00
5930;DHT22;2990;48.746;9.236;2023-01-20T00:15:35;-0.90;1.00
5930;DHT22;2990;48.746;9.236;2023-01-20T00:18:01;-0.90;1.00
5930;DHT22;2990;48.746;9.236;2023-01-20T00:20:26;-0.80;1.00
5930;DHT22;2990;48.746;9.236;2023-01-20T00:22:52;-0.90;1.00
5930;DHT22;2990;48.746;9.236;2023-01-20T00:25:20;-0.90;1.00
5930;DHT22;2990;48.746;9.236;2023-01-20T00:27:46;-0.90;1.00
5930;DHT22;2990;48.746;9.236;2023-01-20T00:30:12;-0.90;1.00
5930;DHT22;2990;48.746;9.236;2023-01-20T00:32:39;-0.90;1.00
5930;DHT22;2990;48.746;9.236;2023-01-20T00:35:11;-0.90;1.00
5930;DHT22;2990;48.746;9.236;2023-01-20T00:37:37;-0.90;1.00
5930;DHT22;2990;48.746;9.236;2023-01-20T00:40:04;-0.90;1.00
5930;DHT22;2990;48.746;9.236;2023-01-20T00:42:30;-1.00;1.00
5930;DHT22;2990;48.746;9.236;2023-01-20T00:44:55;-1.00;1.00
5930;DHT22;2990;48.746;9.236;2023-01-20T00:47:21;-1.00;1.00
5930;DHT22;2990;48.746;9.236;2023-01-20T00:49:48;-1.00;1.00
5930;DHT22;2990;48.746;9.236;2023-01-20T00:52:14;-1.10;1.00
5930;DHT22;2990;48.746;9.236;2023-01-20T00:54:40;-1.00;1.00
5930;DHT22;2990;48.746;9.236;2023-01-20T00:57:06;-1.00;1.00
5930;DHT22;2990;48.746;9.236;2023-01-20T00:59:34;-1.00;1.00
5930;DHT22;2990;48.746;9.236;2023-01-20T01:02:02;-0.90;1.00
5930;DHT22;2990;48.746;9.236;2023-01-20T01:04:29;-1.00;1.00
5930;DHT22;2990;48.746;9.236;2023-01-20T01:06:54;-1.00;1.00
5930;DHT22;2990;48.746;9.236;2023-01-20T01:09:20;-1.00;1.00
5930;DHT22;2990;48.746;9.236;2023-01-20T01:11:47;-1.00;1.00
5930;DHT22;2990;48.746;9.236;2023-01-20T01:14:12;-1.00;1.00
5930;DHT22;2990;48.746;9.236;2023-01-20T01:16:38;-1.00;1.00
5930;DHT22;2990;48.746;9.236;2023-01-20T01:19:04;-1.00;1.00
5930;DHT22;2990;48.746;9.236;2023-01-20T01:21:30;-1.00;1.00
5930;DHT22;2990;48.746;9.236;2023-01-20T01:23:55;-1.00;1.00
5930;DHT22;2990;48.746;9.236;2023-01-20T01:26:21;-1.00;1.00
5930;DHT22;2990;48.746;9.236;2023-01-20T01:28:48;-1.00;1.00
5930;DHT22;2990;48.746;9.236;2023-01-20T01:31:15;-0.90;1.00
5930;DHT22;2990;48.746;9.236;2023-01-20T01:33:41;-1.00;1.00
5930;DHT22;2990;48.746;9.236;2023-01-20T01:36:14;-1.00;1.00
5930;DHT22;2990;48.746;9.236;2023-01-20T01:38:40;-1.00;1.00
5930;DHT22;2990;48.746;9.236;2023-01-20T01:41:05;-1.00;1.00
5930;DHT22;2990;48.746;9.236;2023-01-20T01:43:36;-1.00;1.00
5930;DHT22;2990;48.746;9.236;2023-01-20T01:46:02;-1.00;1.00
5930;DHT22;2990;48.746;9.236;2023-01-20T01:48:32;-1.10;1.00
5930;DHT22;2990;48.746;9.236;2023-01-20T01:53:52;-1.10;1.00
5930;DHT22;2990;48.746;9.236;2023-01-20T01:56:20;-1.10;1.00
5930;DHT22;2990;48.746;9.236;2023-01-20T01:58:47;-1.10;1.00
5930;DHT22;2990;48.746;9.236;2023-01-20T02:01:15;-1.10;1.00
5930;DHT22;2990;48.746;9.236;2023-01-20T02:03:53;-1.10;1.00
5930;DHT22;2990;48.746;9.236;2023-01-20T02:06:21;-1.10;1.00
5930;DHT22;2990;48.746;9.236;2023-01-20T02:08:49;-1.10;1.00
5930;DHT22;2990;48.746;9.236;2023-01-20T02:11:15;-1.10;1.00
5930;DHT22;2990;48.746;9.236;2023-01-20T02:13:41;-1.20;1.00
5930;DHT22;2990;48.746;9.236;2023-01-20T02:16:17;-1.10;1.00
5930;DHT22;2990;48.746;9.236;2023-01-20T02:18:56;-1.10;1.00
5930;DHT22;2990;48.746;9.236;2023-01-20T02:21:47;-1.10;1.00
5930;DHT22;2990;48.746;9.236;2023-01-20T02:33:01;-1.10;1.00
5930;DHT22;2990;48.746;9.236;2023-01-20T02:38:29;-1.00;1.00
5930;DHT22;2990;48.746;9.236;2023-01-20T02:41:22;-1.00;1.00
5930;DHT22;2990;48.746;9.236;2023-01-20T02:47:01;-1.00;1.00
5930;DHT22;2990;48.746;9.236;2023-01-20T02:49:38;-0.90;1.00
5930;DHT22;2990;48.746;9.236;2023-01-20T02:52:17;-0.90;1.00
5930;DHT22;2990;48.746;9.236;2023-01-20T02:54:48;-0.90;1.00
5930;DHT22;2990;48.746;9.236;2023-01-20T02:57:20;-0.90;1.00
5930;DHT22;2990;48.746;9.236;2023-01-20T02:59:52;-0.90;1.00
5930;DHT22;2990;48.746;9.236;2023-01-20T03:02:21;-0.80;1.00
5930;DHT22;2990;48.746;9.236;2023-01-20T03:05:07;-0.90;1.00
5930;DHT22;2990;48.746;9.236;2023-01-20T03:07:36;-0.80;1.00
5930;DHT22;2990;48.746;9.236;2023-01-20T03:10:06;-0.80;1.00
5930;DHT22;2990;48.746;9.236;2023-01-20T03:12:37;-0.80;1.00
5930;DHT22;2990;48.746;9.236;2023-01-20T03:15:05;-0.90;1.00
5930;DHT22;2990;48.746;9.236;2023-01-20T03:17:31;-0.90;12.80
5930;DHT22;2990;48.746;9.236;2023-01-20T03:19:57;-0.90;22.60
5930;DHT22;2990;48.746;9.236;2023-01-20T03:22:23;-0.90;27.90
5930;DHT22;2990;48.746;9.236;2023-01-20T03:24:49;-0.90;33.10
5930;DHT22;2990;48.746;9.236;2023-01-20T03:27:14;-0.90;41.70
5930;DHT22;2990;48.746;9.236;2023-01-20T03:29:40;-0.90;44.80
5930;DHT22;2990;48.746;9.236;2023-01-20T03:32:07;-0.90;45.80
5930;DHT22;2990;48.746;9.236;2023-01-20T03:34:36;-0.90;46.20
5930;DHT22;2990;48.746;9.236;2023-01-20T03:37:04;-0.90;48.20
5930;DHT22;2990;48.746;9.236;2023-01-20T03:39:30;-0.90;51.60
5930;DHT22;2990;48.746;9.236;2023-01-20T03:44:49;-0.90;65.20
5930;DHT22;2990;48.746;9.236;2023-01-20T03:47:52;-0.90;74.50
5930;DHT22;2990;48.746;9.236;2023-01-20T03:50:46;-1.00;85.00
5930;DHT22;2990;48.746;9.236;2023-01-20T03:53:33;-1.00;95.10
5930;DHT22;2990;48.746;9.236;2023-01-20T03:56:02;-0.90;99.90
5930;DHT22;2990;48.746;9.236;2023-01-20T03:58:35;-1.00;99.90
5930;DHT22;2990;48.746;9.236;2023-01-20T04:01:04;-0.90;99.90
5930;DHT22;2990;48.746;9.236;2023-01-20T04:03:34;-0.90;99.90
5930;DHT22;2990;48.746;9.236;2023-01-20T04:06:04;-1.00;99.90
5930;DHT22;2990;48.746;9.236;2023-01-20T04:08:34;-1.00;99.90
5930;DHT22;2990;48.746;9.236;2023-01-20T04:11:04;-1.00;99.90
5930;DHT22;2990;48.746;9.236;2023-01-20T04:13:30;-1.00;99.90
5930;DHT22;2990;48.746;9.236;2023-01-20T04:15:57;-1.00;99.90
5930;DHT22;2990;48.746;9.236;2023-01-20T04:18:23;-1.00;99.90
5930;DHT22;2990;48.746;9.236;2023-01-20T04:21:00;-1.00;99.90
5930;DHT22;2990;48.746;9.236;2023-01-20T04:23:32;-1.00;99.90
5930;DHT22;2990;48.746;9.236;2023-01-20T04:25:59;-1.00;99.90
5930;DHT22;2990;48.746;9.236;2023-01-20T04:28:25;-1.00;99.90
5930;DHT22;2990;48.746;9.236;2023-01-20T04:30:51;-1.00;99.90
5930;DHT22;2990;48.746;9.236;2023-01-20T04:33:16;-1.00;99.90
5930;DHT22;2990;48.746;9.236;2023-01-20T04:35:42;-1.00;99.90
5930;DHT22;2990;48.746;9.236;2023-01-20T04:38:08;-1.00;99.90
5930;DHT22;2990;48.746;9.236;2023-01-20T04:40:33;-1.10;99.90
5930;DHT22;2990;48.746;9.236;2023-01-20T04:42:59;-1.10;99.90
5930;DHT22;2990;48.746;9.236;2023-01-20T04:45:24;-1.00;99.90
5930;DHT22;2990;48.746;9.236;2023-01-20T04:47:50;-1.10;99.90
5930;DHT22;2990;48.746;9.236;2023-01-20T04:50:16;-1.10;99.90
5930;DHT22;2990;48.746;9.236;2023-01-20T04:52:42;-1.10;99.90
5930;DHT22;2990;48.746;9.236;2023-01-20T04:55:08;-1.10;99.90
5930;DHT22;2990;48.746;9.236;2023-01-20T04:57:34;-1.00;99.90
5930;DHT22;2990;48.746;9.236;2023-01-20T04:59:59;-1.00;99.90
5930;DHT22;2990;48.746;9.236;2023-01-20T05:02:25;-1.10;99.90
5930;DHT22;2990;48.746;9.236;2023-01-20T05:04:50;-1.00;99.90
5930;DHT22;2990;48.746;9.236;2023-01-20T05:07:16;-1.00;99.90
5930;DHT22;2990;48.746;9.236;2023-01-20T05:09:41;-1.00;99.90
5930;DHT22;2990;48.746;9.236;2023-01-20T05:12:07;-1.00;99.90
5930;DHT22;2990;48.746;9.236;2023-01-20T05:14:32;-1.00;99.90
5930;DHT22;2990;48.746;9.236;2023-01-20T05:16:58;-1.00;99.90
5930;DHT22;2990;48.746;9.236;2023-01-20T05:19:24;-1.00;99.90
5930;DHT22;2990;48.746;9.236;2023-01-20T05:21:49;-1.00;99.90
5930;DHT22;2990;48.746;9.236;2023-01-20T05:24:15;-0.80;99.90
5930;DHT22;2990;48.746;9.236;2023-01-20T05:26:40;-1.00;99.90
5930;DHT22;2990;48.746;9.236;2023-01-20T05:29:06;-0.90;99.90
5930;DHT22;2990;48.746;9.236;2023-01-20T05:31:31;-0.90;99.90
5930;DHT22;2990;48.746;9.236;2023-01-20T05:33:57;-0.90;99.90
5930;DHT22;2990;48.746;9.236;2023-01-20T05:36:23;-0.90;99.90
5930;DHT22;2990;48.746;9.236;2023-01-20T05:38:49;-0.90;99.90
5930;DHT22;2990;48.746;9.236;2023-01-20T05:41:14;-0.90;99.90
5930;DHT22;2990;48.746;9.236;2023-01-20T05:43:40;-0.90;99.90
5930;DHT22;2990;48.746;9.236;2023-01-20T05:46:05;-0.90;99.90
5930;DHT22;2990;48.746;9.236;2023-01-20T05:48:31;-0.90;99.90
5930;DHT22;2990;48.746;9.236;2023-01-20T05:50:57;-0.90;99.90
5930;DHT22;2990;48.746;9.236;2023-01-20T05:53:23;-0.90;99.90
5930;DHT22;2990;48.746;9.236;2023-01-20T05:55:48;-0.90;99.90
5930;DHT22;2990;48.746;9.236;2023-01-20T05:58:14;-0.90;99.90
5930;DHT22;2990;48.746;9.236;2023-01-20T06:00:42;-0.90;99.90
5930;DHT22;2990;48.746;9.236;2023-01-20T06:03:10;-0.90;99.90
5930;DHT22;2990;48.746;9.236;2023-01-20T06:05:36;-1.00;99.90
5930;DHT22;2990;48.746;9.236;2023-01-20T06:08:09;-1.00;99.90
5930;DHT22;2990;48.746;9.236;2023-01-20T06:10:35;-1.00;99.90
5930;DHT22;2990;48.746;9.236;2023-01-20T06:13:03;-1.10;99.90
5930;DHT22;2990;48.746;9.236;2023-01-20T06:15:28;-1.20;99.90
5930;DHT22;2990;48.746;9.236;2023-01-20T06:17:54;-1.10;99.90
5930;DHT22;2990;48.746;9.236;2023-01-20T06:20:20;-1.10;99.90
5930;DHT22;2990;48.746;9.236;2023-01-20T06:22:46;-1.20;96.30
5930;DHT22;2990;48.746;9.236;2023-01-20T06:25:11;-1.20;93.40
5930;DHT22;2990;48.746;9.236;2023-01-20T06:27:37;-1.10;90.30
5930;DHT22;2990;48.746;9.236;2023-01-20T06:30:07;-1.20;81.40
5930;DHT22;2990;48.746;9.236;2023-01-20T06:32:33;-1.20;58.70
5930;DHT22;2990;48.746;9.236;2023-01-20T06:34:59;-1.30;57.50
5930;DHT22;2990;48.746;9.236;2023-01-20T06:37:26;-1.30;56.80
5930;DHT22;2990;48.746;9.236;2023-01-20T06:39:54;-1.30;58.80
5930;DHT22;2990;48.746;9.236;2023-01-20T06:42:22;-1.20;62.50
5930;DHT22;2990;48.746;9.236;2023-01-20T06:44:50;-1.30;65.20
5930;DHT22;2990;48.746;9.236;2023-01-20T06:47:19;-1.30;62.50
5930;DHT22;2990;48.746;9.236;2023-01-20T06:49:44;-1.30;58.10
5930;DHT22;2990;48.746;9.236;2023-01-20T06:52:10;-1.20;56.50
5930;DHT22;2990;48.746;9.236;2023-01-20T06:54:38;-1.30;65.80
5930;DHT22;2990;48.746;9.236;2023-01-20T06:57:04;-1.20;75.40
5930;DHT22;2990;48.746;9.236;2023-01-20T06:59:30;-1.20;81.70
5930;DHT22;2990;48.746;9.236;2023-01-20T07:01:55;-1.20;85.10
5930;DHT22;2990;48.746;9.236;2023-01-20T07:04:21;-1.10;82.90
5930;DHT22;2990;48.746;9.236;2023-01-20T07:06:47;-1.10;77.00
5930;DHT22;2990;48.746;9.236;2023-01-20T07:09:15;-1.00;63.20
5930;DHT22;2990;48.746;9.236;2023-01-20T07:11:40;-0.90;52.90
5930;DHT22;2990;48.746;9.236;2023-01-20T07:14:07;-1.00;42.60
5930;DHT22;2990;48.746;9.236;2023-01-20T07:16:36;-0.90;32.30
5930;DHT22;2990;48.746;9.236;2023-01-20T07:19:04;-0.90;20.30
5930;DHT22;2990;48.746;9.236;2023-01-20T07:21:30;-0.90;11.80
5930;DHT22;2990;48.746;9.236;2023-01-20T07:24:00;-0.90;7.10
5930;DHT22;2990;48.746;9.236;2023-01-20T07:26:33;-1.00;3.10
5930;DHT22;2990;48.746;9.236;2023-01-20T07:29:01;-0.80;1.00
5930;DHT22;2990;48.746;9.236;2023-01-20T07:31:28;-0.80;1.00
5930;DHT22;2990;48.746;9.236;2023-01-20T07:33:54;-0.90;1.00
5930;DHT22;2990;48.746;9.236;2023-01-20T07:36:21;-0.90;1.00
5930;DHT22;2990;48.746;9.236;2023-01-20T07:38:49;-0.90;1.00
5930;DHT22;2990;48.746;9.236;2023-01-20T07:41:16;-0.90;1.00
5930;DHT22;2990;48.746;9.236;2023-01-20T07:43:47;-0.90;1.00
5930;DHT22;2990;48.746;9.236;2023-01-20T07:46:13;-0.90;1.00
5930;DHT22;2990;48.746;9.236;2023-01-20T07:48:41;-0.90;1.00
5930;DHT22;2990;48.746;9.236;2023-01-20T07:51:09;-0.90;1.00
5930;DHT22;2990;48.746;9.236;2023-01-20T07:53:43;-0.80;1.00
5930;DHT22;2990;48.746;9.236;2023-01-20T07:56:19;-0.90;1.00
5930;DHT22;2990;48.746;9.236;2023-01-20T07:58:45;-0.80;1.00
5930;DHT22;2990;48.746;9.236;2023-01-20T08:01:18;-0.80;1.00
5930;DHT22;2990;48.746;9.236;2023-01-20T08:03:50;-0.70;1.00
5930;DHT22;2990;48.746;9.236;2023-01-20T08:06:23;-0.70;1.00
5930;DHT22;2990;48.746;9.236;2023-01-20T08:08:50;-0.70;1.00
5930;DHT22;2990;48.746;9.236;2023-01-20T08:11:19;-0.60;1.00
5930;DHT22;2990;48.746;9.236;2023-01-20T08:13:56;-0.50;1.00
5930;DHT22;2990;48.746;9.236;2023-01-20T08:16:22;-0.50;1.00
5930;DHT22;2990;48.746;9.236;2023-01-20T08:18:52;-0.30;1.00
5930;DHT22;2990;48.746;9.236;2023-01-20T08:21:25;-0.40;1.00
5930;DHT22;2990;48.746;9.236;2023-01-20T08:23:56;-0.20;1.00
5930;DHT22;2990;48.746;9.236;2023-01-20T08:26:22;-0.20;1.00
5930;DHT22;2990;48.746;9.236;2023-01-20T08:29:03;-0.20;1.00
5930;DHT22;2990;48.746;9.236;2023-01-20T08:31:35;-0.20;1.00
5930;DHT22;2990;48.746;9.236;2023-01-20T08:34:08;-0.20;1.00
5930;DHT22;2990;48.746;9.236;2023-01-20T08:36:40;-0.20;1.00
5930;DHT22;2990;48.746;9.236;2023-01-20T08:39:13;-0.20;1.00
5930;DHT22;2990;48.746;9.236;2023-01-20T08:41:42;-0.30;1.00
5930;DHT22;2990;48.746;9.236;2023-01-20T08:44:09;-0.20;1.00
5930;DHT22;2990;48.746;9.236;2023-01-20T08:46:35;-0.20;1.00
5930;DHT22;2990;48.746;9.236;2023-01-20T08:49:08;-0.20;1.00
5930;DHT22;2990;48.746;9.236;2023-01-20T08:51:34;-0.20;1.00
5930;DHT22;2990;48.746;9.236;2023-01-20T08:54:03;-0.20;1.00
5930;DHT22;2990;48.746;9.236;2023-01-20T08:56:29;0.00;1.00
5930;DHT22;2990;48.746;9.236;2023-01-20T08:58:58;-0.10;1.00
5930;DHT22;2990;48.746;9.236;2023-01-20T09:01:29;-0.10;1.00
5930;DHT22;2990;48.746;9.236;2023-01-20T09:03:58;-0.10;1.00
5930;DHT22;2990;48.746;9.236;2023-01-20T09:06:24;-0.10;1.00
5930;DHT22;2990;48.746;9.236;2023-01-20T09:11:31;0.00;1.00
5930;DHT22;2990;48.746;9.236;2023-01-20T09:14:05;0.00;1.00
5930;DHT22;2990;48.746;9.236;2023-01-20T09:16:37;0.10;1.00
5930;DHT22;2990;48.746;9.236;2023-01-20T09:19:05;0.30;1.00
5930;DHT22;2990;48.746;9.236;2023-01-20T09:21:33;0.30;1.00
5930;DHT22;2990;48.746;9.236;2023-01-20T09:24:07;0.30;1.00
5930;DHT22;2990;48.746;9.236;2023-01-20T09:26:33;0.20;99.90
5930;DHT22;2990;48.746;9.236;2023-01-20T09:29:11;0.20;99.90
5930;DHT22;2990;48.746;9.236;2023-01-20T09:31:43;0.30;99.90
5930;DHT22;2990;48.746;9.236;2023-01-20T09:34:22;0.30;99.90
5930;DHT22;2990;48.746;9.236;2023-01-20T09:36:59;0.30;99.90
5930;DHT22;2990;48.746;9.236;2023-01-20T09:39:47;0.30;99.90
5930;DHT22;2990;48.746;9.236;2023-01-20T09:48:45;0.30;99.90
5930;DHT22;2990;48.746;9.236;2023-01-20T09:51:48;0.40;99.90
5930;DHT22;2990;48.746;9.236;2023-01-20T09:54:42;0.40;81.90
5930;DHT22;2990;48.746;9.236;2023-01-20T09:57:14;0.40;11.20
5930;DHT22;2990;48.746;9.236;2023-01-20T09:59:54;0.40;1.00
5930;DHT22;2990;48.746;9.236;2023-01-20T10:02:27;0.40;1.00
5930;DHT22;2990;48.746;9.236;2023-01-20T10:04:58;0.40;6.50
5930;DHT22;2990;48.746;9.236;2023-01-20T10:07:40;0.50;1.00
5930;DHT22;2990;48.746;9.236;2023-01-20T10:10:16;0.60;1.00
5930;DHT22;2990;48.746;9.236;2023-01-20T10:12:52;0.70;1.00
5930;DHT22;2990;48.746;9.236;2023-01-20T10:15:35;0.90;1.00
5930;DHT22;2990;48.746;9.236;2023-01-20T10:18:11;0.90;99.90
5930;DHT22;2990;48.746;9.236;2023-01-20T10:20:52;1.00;1.00
5930;DHT22;2990;48.746;9.236;2023-01-20T10:26:25;0.90;1.00
5930;DHT22;2990;48.746;9.236;2023-01-20T10:29:01;0.90;1.00
5930;DHT22;2990;48.746;9.236;2023-01-20T10:32:01;1.00;1.00
5930;DHT22;2990;48.746;9.236;2023-01-20T10:34:41;1.10;1.00
5930;DHT22;2990;48.746;9.236;2023-01-20T10:37:11;1.30;1.00
5930;DHT22;2990;48.746;9.236;2023-01-20T10:39:58;1.40;99.90
5930;DHT22;2990;48.746;9.236;2023-01-20T10:42:26;1.60;1.00
5930;DHT22;2990;48.746;9.236;2023-01-20T10:44:55;1.70;12.00
5930;DHT22;2990;48.746;9.236;2023-01-20T10:47:42;1.60;99.90
5930;DHT22;2990;48.746;9.236;2023-01-20T10:55:33;1.80;13.20
5930;DHT22;2990;48.746;9.236;2023-01-20T10:58:21;1.70;1.00
5930;DHT22;2990;48.746;9.236;2023-01-20T11:00:50;1.70;75.20
5930;DHT22;2990;48.746;9.236;2023-01-20T11:03:20;1.80;99.90
5930;DHT22;2990;48.746;9.236;2023-01-20T11:05:48;1.90;99.90
5930;DHT22;2990;48.746;9.236;2023-01-20T11:08:27;1.80;1.00
5930;DHT22;2990;48.746;9.236;2023-01-20T11:11:00;1.80;98.70
5930;DHT22;2990;48.746;9.236;2023-01-20T11:13:39;1.70;99.90
5930;DHT22;2990;48.746;9.236;2023-01-20T11:16:24;1.60;1.00
5930;DHT22;2990;48.746;9.236;2023-01-20T11:19:02;1.40;1.00
5930;DHT22;2990;48.746;9.236;2023-01-20T11:21:33;1.30;1.00
5930;DHT22;2990;48.746;9.236;2023-01-20T11:24:07;1.30;1.00
5930;DHT22;2990;48.746;9.236;2023-01-20T11:26:53;1.30;1.00
5930;DHT22;2990;48.746;9.236;2023-01-20T11:29:39;1.20;99.90
5930;DHT22;2990;48.746;9.236;2023-01-20T11:32:26;1.30;1.00
5930;DHT22;2990;48.746;9.236;2023-01-20T11:34:54;1.40;99.90
5930;DHT22;2990;48.746;9.236;2023-01-20T11:37:38;1.40;99.90
5930;DHT22;2990;48.746;9.236;2023-01-20T11:40:26;1.50;99.90
5930;DHT22;2990;48.746;9.236;2023-01-20T11:42:55;1.60;1.00
5930;DHT22;2990;48.746;9.236;2023-01-20T11:45:31;1.70;1.00
5930;DHT22;2990;48.746;9.236;2023-01-20T11:48:16;1.80;99.90
5930;DHT22;2990;48.746;9.236;2023-01-20T11:50:50;2.00;1.00
5930;DHT22;2990;48.746;9.236;2023-01-20T11:53:31;2.10;74.60
5930;DHT22;2990;48.746;9.236;2023-01-20T11:56:00;2.10;1.00
5930;DHT22;2990;48.746;9.236;2023-01-20T11:58:31;2.10;99.90
5930;DHT22;2990;48.746;9.236;2023-01-20T12:01:14;2.20;1.00
5930;DHT22;2990;48.746;9.236;2023-01-20T12:04:04;2.40;99.90
5930;DHT22;2990;48.746;9.236;2023-01-20T12:06:37;2.60;1.00
5930;DHT22;2990;48.746;9.236;2023-01-20T12:09:15;2.60;1.00
5930;DHT22;2990;48.746;9.236;2023-01-20T12:11:54;2.40;1.00
5930;DHT22;2990;48.746;9.236;2023-01-20T12:14:31;2.20;1.00
5930;DHT22;2990;48.746;9.236;2023-01-20T12:20:20;2.10;1.00
5930;DHT22;2990;48.746;9.236;2023-01-20T12:25:49;1.70;99.90
5930;DHT22;2990;48.746;9.236;2023-01-20T12:28:32;1.80;99.90
5930;DHT22;2990;48.746;9.236;2023-01-20T12:31:03;1.80;97.10
5930;DHT22;2990;48.746;9.236;2023-01-20T12:33:37;1.60;99.90
5930;DHT22;2990;48.746;9.236;2023-01-20T12:39:27;1.30;59.70
5930;DHT22;2990;48.746;9.236;2023-01-20T12:44:57;1.20;1.00
5930;DHT22;2990;48.746;9.236;2023-01-20T12:51:05;1.30;1.00
5930;DHT22;2990;48.746;9.236;2023-01-20T12:56:10;1.40;99.90
5930;DHT22;2990;48.746;9.236;2023-01-20T12:59:09;1.40;1.00
5930;DHT22;2990;48.746;9.236;2023-01-20T13:04:56;1.40;75.60
5930;DHT22;2990;48.746;9.236;2023-01-20T13:07:38;1.40;1.00
5930;DHT22;2990;48.746;9.236;2023-01-20T13:10:33;1.40;1.00
5930;DHT22;2990;48.746;9.236;2023-01-20T13:13:23;1.40;1.00
5930;DHT22;2990;48.746;9.236;2023-01-20T13:15:59;1.40;1.00
5930;DHT22;2990;48.746;9.236;2023-01-20T13:20:58;1.40;1.00
5930;DHT22;2990;48.746;9.236;2023-01-20T13:23:32;1.40;1.00
5930;DHT22;2990;48.746;9.236;2023-01-20T13:26:00;1.30;1.00
5930;DHT22;2990;48.746;9.236;2023-01-20T13:28:27;1.30;99.90
5930;DHT22;2990;48.746;9.236;2023-01-20T13:30:55;1.20;99.90
5930;DHT22;2990;48.746;9.236;2023-01-20T13:33:40;1.20;1.00
5930;DHT22;2990;48.746;9.236;2023-01-20T13:36:19;1.20;1.00
5930;DHT22;2990;48.746;9.236;2023-01-20T13:38:46;1.30;1.00
5930;DHT22;2990;48.746;9.236;2023-01-20T13:41:50;1.20;1.00
5930;DHT22;2990;48.746;9.236;2023-01-20T13:44:37;1.20;1.00
5930;DHT22;2990;48.746;9.236;2023-01-20T13:47:07;1.40;99.90
5930;DHT22;2990;48.746;9.236;2023-01-20T13:52:13;1.20;1.00
5930;DHT22;2990;48.746;9.236;2023-01-20T13:54:44;1.30;1.00
5930;DHT22;2990;48.746;9.236;2023-01-20T13:57:33;1.30;80.90
5930;DHT22;2990;48.746;9.236;2023-01-20T13:59:58;1.30;67.50
5930;DHT22;2990;48.746;9.236;2023-01-20T14:02:25;1.30;99.90
5930;DHT22;2990;48.746;9.236;2023-01-20T14:04:51;1.30;99.90
5930;DHT22;2990;48.746;9.236;2023-01-20T14:07:28;1.40;99.90
5930;DHT22;2990;48.746;9.236;2023-01-20T14:09:58;1.40;1.00
5930;DHT22;2990;48.746;9.236;2023-01-20T14:12:25;1.40;1.00
5930;DHT22;2990;48.746;9.236;2023-01-20T14:14:52;1.40;1.00
5930;DHT22;2990;48.746;9.236;2023-01-20T14:17:21;1.50;1.00
5930;DHT22;2990;48.746;9.236;2023-01-20T14:19:53;1.50;1.00
5930;DHT22;2990;48.746;9.236;2023-01-20T14:22:27;1.50;1.00
5930;DHT22;2990;48.746;9.236;2023-01-20T14:24:55;1.50;1.00
5930;DHT22;2990;48.746;9.236;2023-01-20T14:27:33;1.50;1.00
5930;DHT22;2990;48.746;9.236;2023-01-20T14:30:19;1.60;1.00
5930;DHT22;2990;48.746;9.236;2023-01-20T14:32:46;1.70;1.00
5930;DHT22;2990;48.746;9.236;2023-01-20T14:35:14;1.70;1.00
5930;DHT22;2990;48.746;9.236;2023-01-20T14:37:41;1.80;1.00
5930;DHT22;2990;48.746;9.236;2023-01-20T14:43:03;1.70;99.90
5930;DHT22;2990;48.746;9.236;2023-01-20T14:45:37;1.70;99.90
5930;DHT22;2990;48.746;9.236;2023-01-20T14:48:06;1.60;89.60
5930;DHT22;2990;48.746;9.236;2023-01-20T14:50:31;1.50;99.90
5930;DHT22;2990;48.746;9.236;2023-01-20T14:52:58;1.40;99.90
5930;DHT22;2990;48.746;9.236;2023-01-20T14:55:28;1.30;99.90
5930;DHT22;2990;48.746;9.236;2023-01-20T14:57:54;1.20;99.90
5930;DHT22;2990;48.746;9.236;2023-01-20T15:02:54;1.00;99.90
5930;DHT22;2990;48.746;9.236;2023-01-20T15:05:26;1.00;99.90
5930;DHT22;2990;48.746;9.236;2023-01-20T15:10:37;0.80;99.90
5930;DHT22;2990;48.746;9.236;2023-01-20T15:13:03;0.70;99.90
5930;DHT22;2990;48.746;9.236;2023-01-20T15:15:31;0.60;99.90
5930;DHT22;2990;48.746;9.236;2023-01-20T15:20:48;0.50;1.00
5930;DHT22;2990;48.746;9.236;2023-01-20T15:23:30;0.50;1.00
5930;DHT22;2990;48.746;9.236;2023-01-20T15:26:07;0.40;47.10
5930;DHT22;2990;48.746;9.236;2023-01-20T15:28:37;0.40;99.90
5930;DHT22;2990;48.746;9.236;2023-01-20T15:31:12;0.30;99.90
5930;DHT22;2990;48.746;9.236;2023-01-20T15:33:38;0.30;1.00
5930;DHT22;2990;48.746;9.236;2023-01-20T15:38:44;0.20;1.00
5930;DHT22;2990;48.746;9.236;2023-01-20T15:41:11;0.10;1.00
5930;DHT22;2990;48.746;9.236;2023-01-20T15:43:36;0.00;99.90
5930;DHT22;2990;48.746;9.236;2023-01-20T15:46:09;0.00;1.00
5930;DHT22;2990;48.746;9.236;2023-01-20T15:48:34;0.00;1.00
5930;DHT22;2990;48.746;9.236;2023-01-20T15:51:00;0.00;1.00
5930;DHT22;2990;48.746;9.236;2023-01-20T15:53:25;0.00;99.90
5930;DHT22;2990;48.746;9.236;2023-01-20T15:55:51;-0.10;1.00
5930;DHT22;2990;48.746;9.236;2023-01-20T15:58:22;-0.20;1.00
5930;DHT22;2990;48.746;9.236;2023-01-20T16:00:48;-0.20;99.90
5930;DHT22;2990;48.746;9.236;2023-01-20T16:03:14;-0.30;99.90
5930;DHT22;2990;48.746;9.236;2023-01-20T16:05:40;-0.30;99.90
5930;DHT22;2990;48.746;9.236;2023-01-20T16:08:13;-0.40;1.00
5930;DHT22;2990;48.746;9.236;2023-01-20T16:10:39;-0.40;1.00
5930;DHT22;2990;48.746;9.236;2023-01-20T16:13:04;-0.50;1.00
5930;DHT22;2990;48.746;9.236;2023-01-20T16:15:30;-0.60;99.90
5930;DHT22;2990;48.746;9.236;2023-01-20T16:17:55;-0.60;1.00
5930;DHT22;2990;48.746;9.236;2023-01-20T16:20:23;-0.60;1.00
5930;DHT22;2990;48.746;9.236;2023-01-20T16:22:49;-0.70;1.00
5930;DHT22;2990;48.746;9.236;2023-01-20T16:25:16;-0.70;99.90
5930;DHT22;2990;48.746;9.236;2023-01-20T16:27:44;-0.80;1.00
5930;DHT22;2990;48.746;9.236;2023-01-20T16:30:18;-0.80;99.90
5930;DHT22;2990;48.746;9.236;2023-01-20T16:32:44;-0.80;1.00
5930;DHT22;2990;48.746;9.236;2023-01-20T16:35:12;-0.80;1.00
5930;DHT22;2990;48.746;9.236;2023-01-20T16:37:37;-0.90;1.00
5930;DHT22;2990;48.746;9.236;2023-01-20T16:40:03;-0.80;99.90
5930;DHT22;2990;48.746;9.236;2023-01-20T16:42:29;-0.90;99.90
5930;DHT22;2990;48.746;9.236;2023-01-20T16:45:00;-0.90;99.90
5930;DHT22;2990;48.746;9.236;2023-01-20T16:47:37;-0.90;99.90
5930;DHT22;2990;48.746;9.236;2023-01-20T16:50:05;-1.00;1.00
5930;DHT22;2990;48.746;9.236;2023-01-20T16:52:31;-0.90;1.00
5930;DHT22;2990;48.746;9.236;2023-01-20T16:54:57;-0.90;99.90
5930;DHT22;2990;48.746;9.236;2023-01-20T16:57:22;-0.90;1.00
5930;DHT22;2990;48.746;9.236;2023-01-20T16:59:51;-1.00;1.00
5930;DHT22;2990;48.746;9.236;2023-01-20T17:02:17;-1.00;7.50
5930;DHT22;2990;48.746;9.236;2023-01-20T17:04:42;-0.90;38.00
5930;DHT22;2990;48.746;9.236;2023-01-20T17:07:11;-1.00;1.00
5930;DHT22;2990;48.746;9.236;2023-01-20T17:09:37;-1.00;1.00
5930;DHT22;2990;48.746;9.236;2023-01-20T17:12:02;-1.00;99.90
5930;DHT22;2990;48.746;9.236;2023-01-20T17:14:30;-1.00;99.90
5930;DHT22;2990;48.746;9.236;2023-01-20T17:16:59;-1.00;99.90
5930;DHT22;2990;48.746;9.236;2023-01-20T17:19:25;-1.00;99.90
5930;DHT22;2990;48.746;9.236;2023-01-20T17:21:50;-1.00;17.40
5930;DHT22;2990;48.746;9.236;2023-01-20T17:24:16;-1.00;1.00
5930;DHT22;2990;48.746;9.236;2023-01-20T17:26:42;-1.00;3.30
5930;DHT22;2990;48.746;9.236;2023-01-20T17:29:09;-1.00;1.00
5930;DHT22;2990;48.746;9.236;2023-01-20T17:31:35;-1.00;1.00
5930;DHT22;2990;48.746;9.236;2023-01-20T17:34:05;-1.10;28.10
5930;DHT22;2990;48.746;9.236;2023-01-20T17:36:31;-1.10;1.00
5930;DHT22;2990;48.746;9.236;2023-01-20T17:38:59;-1.10;7.70
5930;DHT22;2990;48.746;9.236;2023-01-20T17:41:26;-1.10;1.00
5930;DHT22;2990;48.746;9.236;2023-01-20T17:43:51;-1.10;1.00
5930;DHT22;2990;48.746;9.236;2023-01-20T17:46:23;-1.10;1.00
5930;DHT22;2990;48.746;9.236;2023-01-20T17:49:18;-1.10;1.00
5930;DHT22;2990;48.746;9.236;2023-01-20T17:51:43;-1.10;1.00
5930;DHT22;2990;48.746;9.236;2023-01-20T17:54:09;-1.10;1.00
5930;DHT22;2990;48.746;9.236;2023-01-20T17:56:35;-1.10;1.00